Time;durP1;ratioP1;P1;durP2;ratioP2;P2;SDS_P1;SDS_P2;PMS_P1;PMS_P2;Temp;Humidity;BMP_temperature;BMP_pressure;BME280_temperature;BME280_humidity;BME280_pressure;Samples;Min_cycle;Max_cycle;Signal;HPM_P1;HPM_P2
2023/10/22 00:02:02;;;;;;;18.27;16.97;;;;;;;;;;5051063;28;20475;-77
2023/10/22 00:04:29;;;;;;;18.73;17.47;;;;;;;;;;5050502;28;20813;-78
2023/10/22 00:06:56;;;;;;;18.77;17.63;;;;;;;;;;5051049;28;20490;-78
2023/10/22 00:09:23;;;;;;;18.97;17.73;;;;;;;;;;5051000;28;20788;-77
2023/10/22 00:11:50;;;;;;;19.00;17.80;;;;;;;;;;5050785;28;20465;-77
2023/10/22 00:14:18;;;;;;;18.73;17.73;;;;;;;;;;5050545;28;20458;-78
2023/10/22 00:16:45;;;;;;;19.60;18.40;;;;;;;;;;5050429;28;20529;-78
2023/10/22 00:19:12;;;;;;;19.00;17.80;;;;;;;;;;5051077;28;20425;-77
2023/10/22 00:21:40;;;;;;;19.43;18.00;;;;;;;;;;5050454;28;20908;-77
2023/10/22 00:24:07;;;;;;;19.47;17.73;;;;;;;;;;5050147;28;20432;-78
2023/10/22 00:26:34;;;;;;;18.97;17.37;;;;;;;;;;5050221;28;20490;-77
2023/10/22 00:29:02;;;;;;;18.90;17.60;;;;;;;;;;5051033;28;20413;-77
2023/10/22 00:31:31;;;;;;;18.40;17.40;;;;;;;;;;5050475;28;20959;-78
2023/10/22 00:33:59;;;;;;;18.70;17.50;;;;;;;;;;5050094;28;20851;-77
2023/10/22 00:36:26;;;;;;;18.27;17.37;;;;;;;;;;5051904;28;20470;-77
2023/10/22 00:38:53;;;;;;;17.90;16.80;;;;;;;;;;5050683;28;20417;-78
2023/10/22 00:41:20;;;;;;;18.20;17.23;;;;;;;;;;5050616;28;20428;-78
2023/10/22 00:43:47;;;;;;;18.53;17.43;;;;;;;;;;5049526;28;20460;-77
2023/10/22 00:46:18;;;;;;;18.33;17.30;;;;;;;;;;5050244;28;20498;-77
2023/10/22 00:48:46;;;;;;;18.10;17.10;;;;;;;;;;5050562;28;20527;-78
2023/10/22 00:51:14;;;;;;;18.73;17.60;;;;;;;;;;5050373;28;20454;-78
2023/10/22 00:53:41;;;;;;;18.10;16.87;;;;;;;;;;5050283;28;20428;-77
2023/10/22 00:56:08;;;;;;;19.27;17.67;;;;;;;;;;5050141;28;20450;-77
2023/10/22 00:58:35;;;;;;;18.33;17.17;;;;;;;;;;5050237;28;20441;-78
2023/10/22 01:01:04;;;;;;;18.73;17.43;;;;;;;;;;5050445;28;20427;-77
2023/10/22 01:03:31;;;;;;;18.50;17.50;;;;;;;;;;5050345;28;20485;-77
2023/10/22 01:06:00;;;;;;;19.60;18.07;;;;;;;;;;5050966;28;20519;-78
2023/10/22 01:08:27;;;;;;;18.77;17.63;;;;;;;;;;5054452;28;20445;-77
2023/10/22 01:10:54;;;;;;;18.63;17.57;;;;;;;;;;5054206;28;20555;-77
2023/10/22 01:13:21;;;;;;;19.03;17.83;;;;;;;;;;5054220;28;20425;-77
2023/10/22 01:15:48;;;;;;;18.73;17.63;;;;;;;;;;5053918;28;20455;-77
2023/10/22 01:18:16;;;;;;;19.73;18.37;;;;;;;;;;5053964;28;20466;-77
2023/10/22 01:20:43;;;;;;;19.17;18.03;;;;;;;;;;5054127;28;20456;-77
2023/10/22 01:23:12;;;;;;;18.93;18.00;;;;;;;;;;5054186;28;20432;-78
2023/10/22 01:25:39;;;;;;;19.10;18.03;;;;;;;;;;5053195;28;20454;-77
2023/10/22 01:28:06;;;;;;;19.33;18.00;;;;;;;;;;5053749;28;20497;-77
2023/10/22 01:30:33;;;;;;;20.40;19.00;;;;;;;;;;5053242;28;20474;-77
2023/10/22 01:33:01;;;;;;;19.73;18.43;;;;;;;;;;5053687;28;20465;-77
2023/10/22 01:35:28;;;;;;;19.70;18.40;;;;;;;;;;5053535;28;20469;-77
2023/10/22 01:37:55;;;;;;;20.00;18.70;;;;;;;;;;5053392;28;20462;-77
2023/10/22 01:40:23;;;;;;;20.13;18.80;;;;;;;;;;5053771;28;20432;-78
2023/10/22 01:42:51;;;;;;;20.20;19.00;;;;;;;;;;5052909;28;20924;-78
2023/10/22 01:45:19;;;;;;;20.77;18.87;;;;;;;;;;5053010;28;20462;-77
2023/10/22 01:47:46;;;;;;;19.80;18.70;;;;;;;;;;5053467;28;20585;-76
2023/10/22 01:50:13;;;;;;;19.87;18.70;;;;;;;;;;5053252;28;20981;-77
2023/10/22 01:52:40;;;;;;;19.67;18.40;;;;;;;;;;5053801;28;20428;-77
2023/10/22 01:55:08;;;;;;;18.97;17.97;;;;;;;;;;5052416;28;20842;-78
2023/10/22 01:57:36;;;;;;;19.83;18.20;;;;;;;;;;5052668;28;20493;-77
2023/10/22 02:00:04;;;;;;;18.90;17.60;;;;;;;;;;5053620;28;20453;-77
2023/10/22 02:02:31;;;;;;;18.83;17.53;;;;;;;;;;5053609;28;20425;-77
2023/10/22 02:04:58;;;;;;;18.87;17.70;;;;;;;;;;5053050;28;20446;-77
2023/10/22 02:07:25;;;;;;;17.77;16.87;;;;;;;;;;5053202;28;20464;-77
2023/10/22 02:09:55;;;;;;;18.47;17.23;;;;;;;;;;5053205;28;20742;-77
2023/10/22 02:12:27;;;;;;;17.97;16.87;;;;;;;;;;5052615;28;20437;-78
2023/10/22 02:14:55;;;;;;;18.47;17.43;;;;;;;;;;5052718;28;20435;-78
2023/10/22 02:17:23;;;;;;;18.03;17.03;;;;;;;;;;5052604;28;20477;-78
2023/10/22 02:19:50;;;;;;;18.23;17.23;;;;;;;;;;5053039;28;20795;-77
2023/10/22 02:22:17;;;;;;;18.17;17.07;;;;;;;;;;5053063;28;20454;-77
2023/10/22 02:24:44;;;;;;;18.07;17.07;;;;;;;;;;5052224;28;20488;-78
2023/10/22 02:27:11;;;;;;;17.73;16.90;;;;;;;;;;5052580;28;20494;-77
2023/10/22 02:29:38;;;;;;;18.13;17.07;;;;;;;;;;5052714;28;20429;-77
2023/10/22 02:32:07;;;;;;;19.10;18.10;;;;;;;;;;5052761;28;20447;-77
2023/10/22 02:34:34;;;;;;;17.43;16.50;;;;;;;;;;5052300;28;21110;-77
2023/10/22 02:37:01;;;;;;;18.73;17.37;;;;;;;;;;5052293;28;20452;-77
2023/10/22 02:39:28;;;;;;;18.30;17.30;;;;;;;;;;5052556;28;20524;-77
2023/10/22 02:41:55;;;;;;;18.33;17.17;;;;;;;;;;5052724;28;20421;-77
2023/10/22 02:44:23;;;;;;;18.33;17.23;;;;;;;;;;5052169;28;20979;-77
2023/10/22 02:46:50;;;;;;;17.53;16.53;;;;;;;;;;5052851;28;20494;-78
2023/10/22 02:49:18;;;;;;;17.63;16.57;;;;;;;;;;5052484;28;20451;-78
2023/10/22 02:51:45;;;;;;;17.20;16.30;;;;;;;;;;5052799;28;20458;-76
2023/10/22 02:54:13;;;;;;;17.97;17.00;;;;;;;;;;5052093;28;20861;-77
2023/10/22 02:56:40;;;;;;;17.70;16.57;;;;;;;;;;5052305;28;20466;-78
2023/10/22 02:59:07;;;;;;;18.23;17.23;;;;;;;;;;5052111;28;20915;-77
2023/10/22 03:01:35;;;;;;;18.17;17.27;;;;;;;;;;5052416;28;20555;-77
2023/10/22 03:04:02;;;;;;;18.70;17.60;;;;;;;;;;5051688;28;20459;-77
2023/10/22 03:06:31;;;;;;;17.37;16.47;;;;;;;;;;5051977;28;20421;-79
2023/10/22 03:08:58;;;;;;;18.03;16.93;;;;;;;;;;5052505;28;20446;-77
2023/10/22 03:11:25;;;;;;;17.63;16.70;;;;;;;;;;5052089;28;20446;-77
2023/10/22 03:13:52;;;;;;;17.17;16.17;;;;;;;;;;5051649;28;20939;-76
2023/10/22 03:16:19;;;;;;;17.83;16.83;;;;;;;;;;5051888;28;20425;-76
2023/10/22 03:18:47;;;;;;;17.30;16.50;;;;;;;;;;5052133;28;20491;-77
2023/10/22 03:21:14;;;;;;;16.93;16.03;;;;;;;;;;5052102;28;20433;-77
2023/10/22 03:23:43;;;;;;;18.13;17.20;;;;;;;;;;5051506;28;20425;-76
2023/10/22 03:26:13;;;;;;;17.73;16.83;;;;;;;;;;5051260;28;21102;-78
2023/10/22 03:28:40;;;;;;;18.27;17.17;;;;;;;;;;5051000;28;21257;-77
2023/10/22 03:31:07;;;;;;;17.43;16.60;;;;;;;;;;5051811;28;20454;-79
2023/10/22 03:33:35;;;;;;;17.40;16.40;;;;;;;;;;5051436;28;20464;-76
2023/10/22 03:36:03;;;;;;;17.50;16.60;;;;;;;;;;5051123;28;20478;-77
2023/10/22 03:38:32;;;;;;;17.80;16.70;;;;;;;;;;5051433;28;20507;-77
2023/10/22 03:41:01;;;;;;;17.20;16.33;;;;;;;;;;5051259;28;20566;-77
2023/10/22 03:43:29;;;;;;;18.30;17.33;;;;;;;;;;5051613;28;20454;-79
2023/10/22 03:45:56;;;;;;;17.60;16.70;;;;;;;;;;5051212;28;20436;-77
2023/10/22 03:48:23;;;;;;;18.97;17.80;;;;;;;;;;5051504;28;20821;-79
2023/10/22 03:50:50;;;;;;;18.47;17.13;;;;;;;;;;5051250;28;20512;-77
2023/10/22 03:53:17;;;;;;;17.47;16.40;;;;;;;;;;5050928;28;20432;-77
2023/10/22 03:55:44;;;;;;;17.20;16.40;;;;;;;;;;5050945;28;20512;-77
2023/10/22 03:58:13;;;;;;;16.80;16.00;;;;;;;;;;5051232;28;20467;-77
2023/10/22 04:00:40;;;;;;;18.50;17.30;;;;;;;;;;5050759;28;20470;-78
2023/10/22 04:03:07;;;;;;;18.10;17.10;;;;;;;;;;5051154;28;20446;-77
2023/10/22 04:05:34;;;;;;;17.87;16.73;;;;;;;;;;5050789;28;20429;-77
2023/10/22 04:08:01;;;;;;;17.80;16.80;;;;;;;;;;5051126;28;20472;-77
2023/10/22 04:10:28;;;;;;;17.57;16.57;;;;;;;;;;5051163;28;20466;-77
2023/10/22 04:12:55;;;;;;;17.80;17.00;;;;;;;;;;5051323;28;20495;-77
2023/10/22 04:15:24;;;;;;;18.30;17.40;;;;;;;;;;5050635;28;20480;-77
2023/10/22 04:17:51;;;;;;;19.50;18.50;;;;;;;;;;5050996;28;20466;-77
2023/10/22 04:20:19;;;;;;;20.60;18.97;;;;;;;;;;5050562;28;20441;-77
2023/10/22 04:22:47;;;;;;;18.43;17.43;;;;;;;;;;5051070;28;20430;-77
2023/10/22 04:25:14;;;;;;;19.00;17.83;;;;;;;;;;5050306;28;20425;-77
2023/10/22 04:27:41;;;;;;;18.70;17.70;;;;;;;;;;5050794;28;20472;-78
2023/10/22 04:30:09;;;;;;;18.77;17.67;;;;;;;;;;5050726;28;20463;-76
2023/10/22 04:32:37;;;;;;;18.80;17.70;;;;;;;;;;5050781;28;20542;-76
2023/10/22 04:35:05;;;;;;;18.93;17.63;;;;;;;;;;5050074;28;20780;-77
2023/10/22 04:37:32;;;;;;;19.53;18.10;;;;;;;;;;5051072;28;20474;-78
2023/10/22 04:39:59;;;;;;;19.53;18.33;;;;;;;;;;5050796;28;20421;-77
2023/10/22 04:42:26;;;;;;;19.37;18.20;;;;;;;;;;5050785;28;20895;-77
2023/10/22 04:44:53;;;;;;;20.20;18.90;;;;;;;;;;5050511;28;20425;-76
2023/10/22 04:47:21;;;;;;;19.07;18.00;;;;;;;;;;5050352;28;20486;-76
2023/10/22 04:49:52;;;;;;;18.93;17.83;;;;;;;;;;5050524;28;20457;-77
2023/10/22 04:52:27;;;;;;;18.83;17.83;;;;;;;;;;5050548;28;20405;-77
2023/10/22 04:54:54;;;;;;;19.07;18.07;;;;;;;;;;5049789;28;20508;-77
2023/10/22 04:57:21;;;;;;;19.00;18.00;;;;;;;;;;5050282;28;20541;-77
2023/10/22 04:59:48;;;;;;;17.47;16.47;;;;;;;;;;5050421;28;20427;-77
2023/10/22 05:02:15;;;;;;;16.93;16.13;;;;;;;;;;5050411;28;20433;-77
2023/10/22 05:04:42;;;;;;;16.97;15.90;;;;;;;;;;5049808;28;20461;-78
2023/10/22 05:07:10;;;;;;;17.40;16.20;;;;;;;;;;5049164;28;20490;-77
2023/10/22 05:09:37;;;;;;;17.67;16.47;;;;;;;;;;5048260;28;20769;-78
2023/10/22 05:12:05;;;;;;;16.70;15.80;;;;;;;;;;5049536;28;20470;-77
2023/10/22 05:14:32;;;;;;;17.10;16.07;;;;;;;;;;5050091;28;20433;-78
2023/10/22 05:16:59;;;;;;;17.50;16.07;;;;;;;;;;5050274;28;20521;-78
2023/10/22 05:19:26;;;;;;;17.17;15.97;;;;;;;;;;5048752;28;20474;-79
2023/10/22 05:21:53;;;;;;;17.13;15.90;;;;;;;;;;5065852;28;20463;-77
2023/10/22 05:24:22;;;;;;;17.27;16.37;;;;;;;;;;5064971;28;20463;-78
2023/10/22 05:26:50;;;;;;;16.90;16.00;;;;;;;;;;5067977;28;20500;-78
2023/10/22 05:29:17;;;;;;;16.70;15.80;;;;;;;;;;5069556;28;20495;-77
2023/10/22 05:31:44;;;;;;;17.20;16.13;;;;;;;;;;5068479;28;20484;-77
2023/10/22 05:34:11;;;;;;;16.50;15.70;;;;;;;;;;5069316;28;20429;-77
2023/10/22 05:36:38;;;;;;;16.40;15.60;;;;;;;;;;5069795;28;20492;-77
2023/10/22 05:39:05;;;;;;;17.57;16.13;;;;;;;;;;5057190;28;20862;-77
2023/10/22 05:41:33;;;;;;;16.30;15.43;;;;;;;;;;5049169;28;20421;-77
2023/10/22 05:44:02;;;;;;;16.60;15.70;;;;;;;;;;5047838;28;20478;-77
2023/10/22 05:46:29;;;;;;;16.60;15.57;;;;;;;;;;5049269;28;20432;-78
2023/10/22 05:48:56;;;;;;;17.27;16.03;;;;;;;;;;5049728;28;20507;-78
2023/10/22 05:51:24;;;;;;;16.50;15.50;;;;;;;;;;5065961;28;20503;-77
2023/10/22 05:53:51;;;;;;;16.10;15.40;;;;;;;;;;5073236;28;20453;-78
2023/10/22 05:56:20;;;;;;;17.20;16.30;;;;;;;;;;5073596;28;20453;-77
2023/10/22 05:58:49;;;;;;;16.87;15.67;;;;;;;;;;5073834;28;20979;-80
2023/10/22 06:01:16;;;;;;;15.70;14.83;;;;;;;;;;5074652;28;20438;-77
2023/10/22 06:03:43;;;;;;;16.10;15.13;;;;;;;;;;5073754;28;20457;-77
2023/10/22 06:06:11;;;;;;;16.87;15.57;;;;;;;;;;5073753;28;20548;-77
2023/10/22 06:08:38;;;;;;;15.63;14.80;;;;;;;;;;5074012;28;20908;-78
2023/10/22 06:11:05;;;;;;;15.93;15.03;;;;;;;;;;5073874;28;20443;-78
2023/10/22 06:13:32;;;;;;;15.20;14.40;;;;;;;;;;5073555;28;20424;-78
2023/10/22 06:16:01;;;;;;;16.10;15.00;;;;;;;;;;5072987;28;20512;-78
2023/10/22 06:18:28;;;;;;;16.00;15.27;;;;;;;;;;5073388;28;20440;-78
2023/10/22 06:20:55;;;;;;;16.23;15.23;;;;;;;;;;5073741;28;20461;-79
2023/10/22 06:23:22;;;;;;;16.17;15.30;;;;;;;;;;5072950;28;21100;-78
2023/10/22 06:25:49;;;;;;;15.33;14.63;;;;;;;;;;5071401;28;20497;-76
2023/10/22 06:28:16;;;;;;;15.20;14.50;;;;;;;;;;5073266;28;20559;-78
2023/10/22 06:30:43;;;;;;;16.30;15.30;;;;;;;;;;5073381;28;20747;-77
2023/10/22 06:33:12;;;;;;;15.67;14.77;;;;;;;;;;5074204;28;20921;-76
2023/10/22 06:35:39;;;;;;;17.70;16.50;;;;;;;;;;5073871;28;20429;-76
2023/10/22 06:38:06;;;;;;;15.20;14.60;;;;;;;;;;5074532;28;20472;-76
2023/10/22 06:40:36;;;;;;;16.47;15.67;;;;;;;;;;5073744;28;20444;-76
2023/10/22 06:43:04;;;;;;;14.90;14.30;;;;;;;;;;5072558;28;20781;-77
2023/10/22 06:45:31;;;;;;;15.90;15.10;;;;;;;;;;5068195;28;20437;-76
2023/10/22 06:47:59;;;;;;;16.43;15.53;;;;;;;;;;5054314;28;20464;-77
2023/10/22 06:50:27;;;;;;;16.53;15.47;;;;;;;;;;5054310;28;20429;-78
2023/10/22 06:52:54;;;;;;;15.70;15.00;;;;;;;;;;5054042;28;20528;-78
2023/10/22 06:55:21;;;;;;;16.27;15.53;;;;;;;;;;5054054;28;20785;-76
2023/10/22 06:57:48;;;;;;;15.80;15.00;;;;;;;;;;5068215;28;20979;-77
2023/10/22 07:00:16;;;;;;;15.60;14.83;;;;;;;;;;5064701;28;20454;-77
2023/10/22 07:02:45;;;;;;;16.20;15.13;;;;;;;;;;5054300;28;20990;-77
2023/10/22 07:05:12;;;;;;;17.27;16.07;;;;;;;;;;5052709;28;20445;-76
2023/10/22 07:07:42;;;;;;;15.97;15.20;;;;;;;;;;5054272;28;20475;-77
2023/10/22 07:10:10;;;;;;;16.33;15.40;;;;;;;;;;5053713;28;20405;-79
2023/10/22 07:12:37;;;;;;;15.50;14.80;;;;;;;;;;5053304;28;20412;-78
2023/10/22 07:15:04;;;;;;;16.60;15.70;;;;;;;;;;5053260;28;20458;-78
2023/10/22 07:17:32;;;;;;;15.90;15.10;;;;;;;;;;5053302;28;20468;-76
2023/10/22 07:19:59;;;;;;;16.40;15.60;;;;;;;;;;5063018;28;20421;-78
2023/10/22 07:22:26;;;;;;;16.07;15.37;;;;;;;;;;5065812;28;20504;-84
2023/10/22 07:24:54;;;;;;;16.27;15.57;;;;;;;;;;5054505;28;20421;-78
2023/10/22 07:27:21;;;;;;;15.70;14.90;;;;;;;;;;5054706;28;20450;-79
2023/10/22 07:29:48;;;;;;;16.60;15.80;;;;;;;;;;5053281;28;20901;-81
2023/10/22 07:32:15;;;;;;;15.50;14.80;;;;;;;;;;5055368;28;20450;-78
2023/10/22 07:34:42;;;;;;;15.77;15.07;;;;;;;;;;5054180;28;20481;-77
2023/10/22 07:37:11;;;;;;;15.70;15.00;;;;;;;;;;5055669;28;20456;-74
2023/10/22 07:39:38;;;;;;;15.90;14.87;;;;;;;;;;5055382;28;20509;-76
2023/10/22 07:42:07;;;;;;;15.70;15.00;;;;;;;;;;5051756;28;20429;-78
2023/10/22 07:44:34;;;;;;;15.40;14.70;;;;;;;;;;5050906;28;20473;-77
2023/10/22 07:47:01;;;;;;;16.33;15.43;;;;;;;;;;5052022;28;20452;-76
2023/10/22 07:49:28;;;;;;;15.10;14.43;;;;;;;;;;5051583;28;20478;-77
2023/10/22 07:51:55;;;;;;;16.63;15.50;;;;;;;;;;5051976;28;20451;-77
2023/10/22 07:54:22;;;;;;;16.00;15.30;;;;;;;;;;5051558;28;20461;-77
2023/10/22 07:56:49;;;;;;;15.43;14.60;;;;;;;;;;5051841;28;20478;-77
2023/10/22 07:59:17;;;;;;;15.13;14.43;;;;;;;;;;5052001;28;20474;-77
2023/10/22 08:01:44;;;;;;;16.27;15.43;;;;;;;;;;5051490;28;20445;-77
2023/10/22 08:04:11;;;;;;;15.40;14.70;;;;;;;;;;5051203;28;20974;-76
2023/10/22 08:06:39;;;;;;;15.67;14.87;;;;;;;;;;5051472;28;20524;-77
2023/10/22 08:09:06;;;;;;;15.70;14.77;;;;;;;;;;5051385;28;20544;-77
2023/10/22 08:11:33;;;;;;;15.40;14.70;;;;;;;;;;5051264;28;20510;-77
2023/10/22 08:14:00;;;;;;;15.90;15.20;;;;;;;;;;5051225;28;20455;-77
2023/10/22 08:16:28;;;;;;;16.70;15.70;;;;;;;;;;5051058;28;20485;-77
2023/10/22 08:18:55;;;;;;;16.37;15.57;;;;;;;;;;5051382;28;20450;-77
2023/10/22 08:21:23;;;;;;;16.33;15.53;;;;;;;;;;5051465;28;20815;-77
2023/10/22 08:23:50;;;;;;;16.30;15.40;;;;;;;;;;5050770;28;20971;-76
2023/10/22 08:26:17;;;;;;;16.53;15.77;;;;;;;;;;5051626;28;20437;-76
2023/10/22 08:28:44;;;;;;;15.90;15.20;;;;;;;;;;5051764;28;20475;-76
2023/10/22 08:31:11;;;;;;;16.50;15.70;;;;;;;;;;5051470;28;20425;-77
2023/10/22 08:33:40;;;;;;;16.33;15.53;;;;;;;;;;5052037;28;20504;-77
2023/10/22 08:36:08;;;;;;;16.30;15.60;;;;;;;;;;5051374;28;20446;-78
2023/10/22 08:38:35;;;;;;;16.90;16.10;;;;;;;;;;5051449;28;20967;-77
2023/10/22 08:41:04;;;;;;;17.20;16.30;;;;;;;;;;5051795;28;20414;-78
2023/10/22 08:43:33;;;;;;;17.40;16.50;;;;;;;;;;5051695;28;20459;-77
2023/10/22 08:46:01;;;;;;;16.97;16.07;;;;;;;;;;5050953;28;20959;-76
2023/10/22 08:48:28;;;;;;;17.80;16.90;;;;;;;;;;5051407;28;20468;-76
2023/10/22 08:50:58;;;;;;;16.87;16.07;;;;;;;;;;5052661;28;20451;-77
2023/10/22 08:53:25;;;;;;;17.10;16.30;;;;;;;;;;5052060;28;20413;-77
2023/10/22 08:55:52;;;;;;;17.00;16.10;;;;;;;;;;5050772;28;20474;-77
2023/10/22 08:58:20;;;;;;;17.73;16.80;;;;;;;;;;5051611;28;20478;-78
2023/10/22 09:00:48;;;;;;;18.17;16.83;;;;;;;;;;5051633;28;20429;-77
2023/10/22 09:03:15;;;;;;;17.40;16.60;;;;;;;;;;5051720;28;20425;-77
2023/10/22 09:05:43;;;;;;;17.60;16.73;;;;;;;;;;5051181;28;20425;-77
2023/10/22 09:08:11;;;;;;;17.43;16.57;;;;;;;;;;5051331;28;20470;-79
2023/10/22 09:10:39;;;;;;;17.47;16.57;;;;;;;;;;5071110;28;20477;-76
2023/10/22 09:13:13;;;;;;;17.60;16.70;;;;;;;;;;5072147;28;20430;-77
2023/10/22 09:15:41;;;;;;;17.10;16.30;;;;;;;;;;5071417;28;20536;-78
2023/10/22 09:18:08;;;;;;;18.20;17.20;;;;;;;;;;5071265;28;20432;-77
2023/10/22 09:20:35;;;;;;;17.50;16.60;;;;;;;;;;5072198;28;20473;-77
2023/10/22 09:23:17;;;;;;;17.40;16.60;;;;;;;;;;5071285;28;21004;-77
2023/10/22 09:25:45;;;;;;;19.10;18.00;;;;;;;;;;5070772;28;20428;-77
2023/10/22 09:28:16;;;;;;;17.63;16.83;;;;;;;;;;5073872;28;20456;-77
2023/10/22 09:30:43;;;;;;;17.57;16.67;;;;;;;;;;5074972;28;20990;-78
2023/10/22 09:33:10;;;;;;;17.43;16.63;;;;;;;;;;5075373;28;20453;-78
2023/10/22 09:35:38;;;;;;;17.17;16.33;;;;;;;;;;5074979;28;20453;-78
2023/10/22 09:38:05;;;;;;;17.77;16.77;;;;;;;;;;5075353;28;20448;-78
2023/10/22 09:40:36;;;;;;;17.50;16.60;;;;;;;;;;5075114;28;20449;-78
2023/10/22 09:43:04;;;;;;;17.70;16.90;;;;;;;;;;5075187;28;20424;-77
2023/10/22 09:45:32;;;;;;;17.37;16.47;;;;;;;;;;5074745;28;20480;-77
2023/10/22 09:48:03;;;;;;;17.93;17.03;;;;;;;;;;5075181;28;20470;-77
2023/10/22 09:50:32;;;;;;;17.50;16.70;;;;;;;;;;5075356;28;20473;-77
2023/10/22 09:53:00;;;;;;;18.47;17.37;;;;;;;;;;5075904;28;20456;-77
2023/10/22 09:55:29;;;;;;;18.30;17.10;;;;;;;;;;5074328;28;20796;-78
2023/10/22 09:57:58;;;;;;;18.00;17.00;;;;;;;;;;5074876;28;20497;-78
2023/10/22 10:00:25;;;;;;;17.50;16.70;;;;;;;;;;5074693;28;20452;-77
2023/10/22 10:02:52;;;;;;;18.10;17.20;;;;;;;;;;5074499;28;20408;-77
2023/10/22 10:05:21;;;;;;;18.23;17.33;;;;;;;;;;5073974;28;20435;-77
2023/10/22 10:07:48;;;;;;;18.10;17.10;;;;;;;;;;5074913;28;20456;-77
2023/10/22 10:10:15;;;;;;;18.07;17.17;;;;;;;;;;5074587;28;20492;-78
2023/10/22 10:12:42;;;;;;;18.80;17.70;;;;;;;;;;5075017;28;20746;-77
2023/10/22 10:15:31;;;;;;;18.67;17.77;;;;;;;;;;5074165;28;20450;-76
2023/10/22 10:18:00;;;;;;;18.23;17.33;;;;;;;;;;5074630;28;20561;-76
2023/10/22 10:20:28;;;;;;;18.27;17.37;;;;;;;;;;5074616;28;20486;-77
2023/10/22 10:23:03;;;;;;;18.30;17.40;;;;;;;;;;5074335;28;20445;-78
2023/10/22 10:25:31;;;;;;;18.07;17.17;;;;;;;;;;5073989;28;20475;-78
2023/10/22 10:28:02;;;;;;;18.67;17.67;;;;;;;;;;5074760;28;20488;-78
2023/10/22 10:30:30;;;;;;;18.40;17.40;;;;;;;;;;5074099;28;20480;-77
2023/10/22 10:32:57;;;;;;;18.50;17.60;;;;;;;;;;5074946;28;20439;-77
2023/10/22 10:35:26;;;;;;;18.20;17.30;;;;;;;;;;5073556;28;20445;-79
2023/10/22 10:38:16;;;;;;;19.20;18.20;;;;;;;;;;5073901;28;20444;-76
2023/10/22 10:40:44;;;;;;;18.30;17.40;;;;;;;;;;5059151;28;20965;-77
2023/10/22 10:43:11;;;;;;;18.70;17.70;;;;;;;;;;5074386;28;20446;-77
2023/10/22 10:45:41;;;;;;;18.50;17.60;;;;;;;;;;5073594;28;20427;-77
2023/10/22 10:48:08;;;;;;;18.60;17.60;;;;;;;;;;5074835;28;20472;-77
2023/10/22 10:50:35;;;;;;;18.00;17.10;;;;;;;;;;5073967;28;20471;-77
2023/10/22 10:53:03;;;;;;;18.70;17.70;;;;;;;;;;5074009;28;20922;-77
2023/10/22 10:55:34;;;;;;;18.73;17.83;;;;;;;;;;5074118;28;20465;-77
2023/10/22 10:58:01;;;;;;;19.40;18.30;;;;;;;;;;5074178;28;20470;-76
2023/10/22 11:00:30;;;;;;;18.60;17.60;;;;;;;;;;5073903;28;20473;-77
2023/10/22 11:02:59;;;;;;;18.73;17.63;;;;;;;;;;5073849;28;20450;-77
2023/10/22 11:05:35;;;;;;;18.43;17.43;;;;;;;;;;5065472;28;20482;-76
2023/10/22 11:08:04;;;;;;;18.83;17.83;;;;;;;;;;5054131;28;20441;-78
2023/10/22 11:10:31;;;;;;;18.40;17.40;;;;;;;;;;5071045;28;20542;-77
2023/10/22 11:13:02;;;;;;;18.50;17.53;;;;;;;;;;5074228;28;20409;-76
2023/10/22 11:15:32;;;;;;;18.70;17.70;;;;;;;;;;5073067;28;20468;-77
2023/10/22 11:18:03;;;;;;;18.97;17.77;;;;;;;;;;5073449;28;20494;-76
2023/10/22 11:20:30;;;;;;;18.50;17.60;;;;;;;;;;5073526;28;20433;-78
2023/10/22 11:22:57;;;;;;;18.53;17.50;;;;;;;;;;5073137;28;21018;-77
2023/10/22 11:25:25;;;;;;;18.20;17.30;;;;;;;;;;5073166;28;20460;-77
2023/10/22 11:27:52;;;;;;;19.43;18.30;;;;;;;;;;5074465;28;20470;-77
2023/10/22 11:30:34;;;;;;;19.40;18.40;;;;;;;;;;5074117;28;20481;-77
2023/10/22 11:33:02;;;;;;;20.20;19.00;;;;;;;;;;5074480;28;20463;-76
2023/10/22 11:35:30;;;;;;;22.50;20.90;;;;;;;;;;5073962;28;20462;-77
2023/10/22 11:37:58;;;;;;;20.60;19.20;;;;;;;;;;5074361;28;20494;-77
2023/10/22 11:40:25;;;;;;;20.83;19.27;;;;;;;;;;5074061;28;20467;-76
2023/10/22 11:42:53;;;;;;;20.70;19.60;;;;;;;;;;5073579;28;20412;-76
2023/10/22 11:45:20;;;;;;;20.30;19.20;;;;;;;;;;5073482;28;20476;-78
2023/10/22 11:47:47;;;;;;;20.80;19.60;;;;;;;;;;5073302;28;20489;-77
2023/10/22 11:50:16;;;;;;;20.90;19.70;;;;;;;;;;5073163;28;20455;-77
2023/10/22 11:52:50;;;;;;;20.80;19.57;;;;;;;;;;5074013;28;20458;-77
2023/10/22 11:55:17;;;;;;;19.87;18.77;;;;;;;;;;5072908;28;20925;-77
2023/10/22 11:57:45;;;;;;;19.73;18.73;;;;;;;;;;5073372;28;20440;-77
2023/10/22 12:00:14;;;;;;;19.57;18.57;;;;;;;;;;5073902;28;20421;-78
2023/10/22 12:02:42;;;;;;;19.77;18.77;;;;;;;;;;5073532;28;20424;-77
2023/10/22 12:05:10;;;;;;;20.13;19.03;;;;;;;;;;5073018;28;20521;-77
2023/10/22 12:07:38;;;;;;;19.83;18.83;;;;;;;;;;5073359;28;20447;-77
2023/10/22 12:10:06;;;;;;;20.03;19.03;;;;;;;;;;5069802;28;20464;-77
2023/10/22 12:12:33;;;;;;;20.17;18.87;;;;;;;;;;5068159;28;20874;-76
2023/10/22 12:15:00;;;;;;;20.37;19.17;;;;;;;;;;5052383;28;20422;-78
2023/10/22 12:17:27;;;;;;;19.10;18.10;;;;;;;;;;5052761;28;20532;-76
2023/10/22 12:19:54;;;;;;;21.00;19.90;;;;;;;;;;5053730;28;20447;-77
2023/10/22 12:22:21;;;;;;;20.47;19.37;;;;;;;;;;5053693;28;20863;-78
2023/10/22 12:24:52;;;;;;;20.77;19.67;;;;;;;;;;5054044;28;20490;-78
2023/10/22 12:27:19;;;;;;;19.90;18.80;;;;;;;;;;5052835;28;20460;-77
2023/10/22 12:29:47;;;;;;;19.70;18.70;;;;;;;;;;5055470;28;20479;-79
2023/10/22 12:32:14;;;;;;;20.03;18.93;;;;;;;;;;5055685;28;20452;-78
2023/10/22 12:34:41;;;;;;;20.93;19.83;;;;;;;;;;5052815;28;20462;-79
2023/10/22 12:37:08;;;;;;;20.80;19.80;;;;;;;;;;5052815;28;20453;-77
2023/10/22 12:39:35;;;;;;;21.00;19.80;;;;;;;;;;5056919;28;20845;-77
2023/10/22 12:42:05;;;;;;;20.00;19.00;;;;;;;;;;5054857;28;20438;-77
2023/10/22 12:44:32;;;;;;;20.03;19.00;;;;;;;;;;5053935;28;20450;-77
2023/10/22 12:47:01;;;;;;;19.97;18.87;;;;;;;;;;5054666;28;20444;-78
2023/10/22 12:49:28;;;;;;;20.07;18.87;;;;;;;;;;5053425;28;21014;-78
2023/10/22 12:51:55;;;;;;;19.50;18.50;;;;;;;;;;5053780;28;20998;-78
2023/10/22 12:54:22;;;;;;;19.07;18.17;;;;;;;;;;5053530;28;20437;-77
2023/10/22 12:56:49;;;;;;;19.97;18.97;;;;;;;;;;5053245;28;20482;-78
2023/10/22 12:59:18;;;;;;;19.00;18.00;;;;;;;;;;5053789;28;20457;-77
2023/10/22 13:01:45;;;;;;;18.70;17.70;;;;;;;;;;5053844;28;20447;-77
2023/10/22 13:04:12;;;;;;;19.83;18.73;;;;;;;;;;5052096;28;20486;-77
2023/10/22 13:06:39;;;;;;;18.80;17.80;;;;;;;;;;5051725;28;20483;-79
2023/10/22 13:09:06;;;;;;;19.23;18.03;;;;;;;;;;5051529;28;20470;-77
2023/10/22 13:11:37;;;;;;;19.53;18.43;;;;;;;;;;5063900;28;20495;-78
2023/10/22 13:14:04;;;;;;;20.53;19.33;;;;;;;;;;5065355;28;20586;-81
2023/10/22 13:16:32;;;;;;;19.90;18.80;;;;;;;;;;5063606;28;20417;-83
2023/10/22 13:19:00;;;;;;;19.67;18.57;;;;;;;;;;5067716;28;20612;-79
2023/10/22 13:21:27;;;;;;;19.60;18.50;;;;;;;;;;5060773;28;20473;-78
2023/10/22 13:23:54;;;;;;;19.77;18.67;;;;;;;;;;5059848;28;20420;-78
2023/10/22 13:26:21;;;;;;;20.80;19.40;;;;;;;;;;5056709;28;20409;-78
2023/10/22 13:28:48;;;;;;;21.00;19.80;;;;;;;;;;5053301;28;20470;-78
2023/10/22 13:31:15;;;;;;;20.77;18.90;;;;;;;;;;5053814;28;20490;-78
2023/10/22 13:33:43;;;;;;;19.20;18.20;;;;;;;;;;5053342;28;21051;-78
2023/10/22 13:36:10;;;;;;;19.97;18.97;;;;;;;;;;5070417;28;20445;-78
2023/10/22 13:38:37;;;;;;;19.67;18.57;;;;;;;;;;5053071;28;20478;-78
2023/10/22 13:41:05;;;;;;;20.33;19.30;;;;;;;;;;5052680;28;20425;-77
2023/10/22 13:43:32;;;;;;;20.07;18.93;;;;;;;;;;5052557;28;20425;-78
2023/10/22 13:46:01;;;;;;;20.00;18.57;;;;;;;;;;5052222;28;20453;-78
2023/10/22 13:48:28;;;;;;;19.70;18.60;;;;;;;;;;5052047;28;20498;-77
2023/10/22 13:50:58;;;;;;;19.00;18.00;;;;;;;;;;5051938;28;20445;-77
2023/10/22 13:53:25;;;;;;;19.33;18.23;;;;;;;;;;5051881;28;20520;-77
2023/10/22 13:55:57;;;;;;;19.60;18.40;;;;;;;;;;5050876;28;20455;-77
2023/10/22 13:58:24;;;;;;;19.07;18.07;;;;;;;;;;5052121;28;20974;-77
2023/10/22 14:00:51;;;;;;;19.30;18.30;;;;;;;;;;5051825;28;20424;-77
2023/10/22 14:03:18;;;;;;;20.00;18.70;;;;;;;;;;5051550;28;20458;-77
2023/10/22 14:05:49;;;;;;;19.23;18.23;;;;;;;;;;5050637;28;20470;-78
2023/10/22 14:08:17;;;;;;;19.67;18.50;;;;;;;;;;5051671;28;20475;-77
2023/10/22 14:10:44;;;;;;;19.80;18.70;;;;;;;;;;5050950;28;20457;-77
2023/10/22 14:13:12;;;;;;;20.30;19.10;;;;;;;;;;5051940;28;20444;-76
2023/10/22 14:15:39;;;;;;;19.83;18.63;;;;;;;;;;5054685;28;20426;-76
2023/10/22 14:18:07;;;;;;;19.57;18.47;;;;;;;;;;5054809;28;20501;-77
2023/10/22 14:20:34;;;;;;;19.70;18.67;;;;;;;;;;5055239;28;20447;-76